Архив погоды в Озерной

Метеограмма Озерная
Четверг, 23 Мая
Время местн. Темп Ветер Видим Явления Облачность нижн/средн/верх Атм. давл. Влжн Точка росы ВНГО R Сост. почвы Tg s
Напр Скр Прв ур.ст ур.м изм
06:00 +10.3° Ю-В 11 15 50 км - преимущественно облачно 762 765 -1.4 69% +4.8° 1 км - - - -
03:00 +6.1° В 7 14 20 км - облачно 764 766 -1.6 76% +2.2° 1 км - - - -
00:00 +6.5° В 7 11 20 км - преимущественно облачно 765 768 -0.2 74% +2.3° 1 км - - - -
Среда, 22 Мая
Время местн. Темп Ветер Видим Явления Облачность нижн/средн/верх Атм. давл. Влжн Точка росы ВНГО R Сост. почвы Tg s
Напр Скр Прв ур.ст ур.м изм
21:00 +8° В 5 15 более 50 км - облачно 765 768 +0.6 70% +2.9° 1 км 0 - - -
18:00 +9.7° В 9 14 более 50 км - облачно 765 767 -0.2 64% +3.3° 1 км - - - -
15:00 +11.8° В 9 13 50 км - облачно 765 768 -0.2 56% +3.4° 1 км - - - -
12:00 +11° В 10 15 более 50 км - преимущественно облачно 765 768 +0.2 57% +2.8° 1 км - - - -
09:00 +8.7° В 9 13 50 км - преимущественно облачно 765 768 +0.2 62% +1.8° 1 км 0 - - -
06:00 +7.5° В 8 13 более 50 км - преимущественно облачно 765 767 +0.3 64% +1.2° 1 км - - - -
03:00 +8.6° В 7 15 20 км - преимущественно облачно 764 767 +0.7 60% +1.4° 1 км - - - -
00:00 +8.6° В 10 14 20 км - преимущественно облачно 764 766 +0.8 62% +1.7° 1 км - - - -
Вторник, 21 Мая
Время местн. Темп Ветер Видим Явления Облачность нижн/средн/верх Атм. давл. Влжн Точка росы ВНГО R Сост. почвы Tg s
Напр Скр Прв ур.ст ур.м изм
21:00 +9.4° В 9 12 более 50 км - облачно 763 766 +0.8 66% +3.4° 1 км 0 - - -
18:00 +7.5° Ю 4 - 50 км - облачно 762 765 +0.9 87% +5.5° 1 км - - - -
15:00 +5.8° Ю 3 - 20 км - облачно 761 764 +0.7 92% +4.6° 300 м - - - -
12:00 +5.3° Ю 2 - 4 км дымка {морось, туман} облачно 761 763 +0.3 96% +4.7° 300 м - - - -
09:00 +4° С 1 - 2 км дымка облачно 760 763 +0.8 97% +3.5° 200 м 0 Влажная (без луж) - -
06:00 +2.8° Ю-В 3 - 4 км дымка облачно 759 762 +0.2 97% +2.3° 200 м - - - -
03:00 +3.3° Ю 3 - 4 км дымка облачно 759 762 -0.1 94% +2.5° 200 м - - - -
00:00 +3.8° Ю 4 - 4 км дымка облачно 759 762 +0.4 94% +2.9° 200 м - - - -
Понедельник, 20 Мая
Время местн. Темп Ветер Видим Явления Облачность нижн/средн/верх Атм. давл. Влжн Точка росы ВНГО R Сост. почвы Tg s
Напр Скр Прв ур.ст ур.м изм
21:00 +3.8° Ю 3 - 4 км дымка облачно 759 762 +0.9 91% +2.5° 300 м 0 - - -
18:00 +4.3° Ю,Ю-З 3 - 10 км - облачно 758 761 +0.2 89% +2.7° 300 м - - - -
15:00 +4.5° Ю 3 - 4 км дымка облачно 758 760 +0.5 93% +3.4° 200 м - - - -
12:00 +6.5° Ю,Ю-З 4 - 50 км туман преимущественно облачно 757 760 +1 91% +5.2° 600 м - - - -
09:00 +5.2° Ю 7 12 2 км туман облачно 756 759 -0.4 97% +4.8° 200 м 0 - - -
06:00 +3.6° Ю 6 - 500 м туман {морось} неба не видно 757 759 -0.8 97% +3.1° - - - - -
03:00 +3.1° Ю 5 - 0.5 км слабая непрерывная морось {туман} неба не видно 758 760 -0.3 97% +2.6° - - - - -